This is the latest recevied weather packets stored in our database for station/object K4IR. If no packets are shown the sender has not sent any weather packets the latest 1 day(s).
| Time | Temp. | Humidity | Pressure | Rain* | Wind** | Luminosity | Snow |
|---|---|---|---|---|---|---|---|
| 1778028084 | 16.67° C | 86% | 1017.5 hPa | 0 mm | 0 m/s | 0 W/m² | - |
| 1778027482 | 17.22° C | 84% | 1017.2 hPa | 0 mm | 0 m/s | 0 W/m² | - |
| 1778026880 | 17.78° C | 82% | 1017 hPa | 0 mm | 0 m/s | 0 W/m² | - |
| 1778026279 | 18.33° C | 80% | 1017.4 hPa | 0 mm | 0 m/s | 1 W/m² | - |
| 1778025679 | 18.33° C | 78% | 1017.1 hPa | 0 mm | 0 m/s | 2 W/m² | - |
| 1778025074 | 18.89° C | 76% | 1017.1 hPa | 0 mm | 0 m/s | 6 W/m² | - |
| 1778024473 | 20° C | 73% | 1017 hPa | 0 mm | 0 m/s | 11 W/m² | - |
| 1778023868 | 20.56° C | 71% | 1017.2 hPa | 0 mm | 0 m/s | 17 W/m² | - |
| 1778023263 | 20.56° C | 70% | 1017.2 hPa | 0 mm | 0 m/s | 33 W/m² | - |
| 1778022659 | 20.56° C | 68% | 1017.4 hPa | 0 mm | 0.45 m/s, 109° | 36 W/m² | - |
| 1778022058 | 21.11° C | 68% | 1017.3 hPa | 0 mm | 0.45 m/s, 80° | 32 W/m² | - |
| 1778021456 | 21.11° C | 67% | 1017.5 hPa | 0 mm | 0 m/s | 34 W/m² | - |
| 1778020856 | 21.67° C | 65% | 1017.3 hPa | 0 mm | 0.89 m/s, 306° | 53 W/m² | - |
| 1778020255 | 22.22° C | 64% | 1017.2 hPa | 0 mm | 0.89 m/s, 276° | 67 W/m² | - |
| 1778019653 | 22.78° C | 63% | 1017.4 hPa | 0 mm | 0.45 m/s, 64° | 102 W/m² | - |
| 1778019053 | 22.78° C | 63% | 1017.4 hPa | 0 mm | 0.45 m/s, 44° | 118 W/m² | - |
| 1778018448 | 23.89° C | 59% | 1017.3 hPa | 0 mm | 0.89 m/s, 35° | 198 W/m² | - |
| 1778017843 | 23.33° C | 62% | 1017.3 hPa | 0 mm | 0.45 m/s, 96° | 292 W/m² | - |
| 1778017244 | 22.78° C | 63% | 1017.3 hPa | 0 mm | 0.89 m/s, 7° | 118 W/m² | - |
| 1778016643 | 22.22° C | 67% | 1017.3 hPa | 0 mm | 0 m/s | 324 W/m² | - |
| 1778016044 | 22.22° C | 66% | 1017.4 hPa | 0 mm | 1.34 m/s, 13° | 128 W/m² | - |
| 1778015443 | 22.22° C | 67% | 1017.6 hPa | 0 mm | 0.45 m/s, 154° | 412 W/m² | - |
| 1778014837 | 22.22° C | 66% | 1017.3 hPa | 0 mm | 1.34 m/s, 211° | 104 W/m² | - |
| 1778014238 | 22.22° C | 66% | 1017.4 hPa | 0 mm | 0 m/s | 121 W/m² | - |
| 1778013632 | 22.78° C | 62% | 1017.3 hPa | 0 mm | 0.89 m/s, 309° | 123 W/m² | - |
* Rain latest hour (hover to see other rain measurements)
** Current wind speed in m/s (hover to see current wind gust speed)